sensor_id;sensor_type;location;lat;lon;timestamp;P1;durP1;ratioP1;P2;durP2;ratioP2
75898;SDS011;64576;50.460;4.866;2023-09-08T00:02:04;179.13;;;171.88;;
75898;SDS011;64576;50.460;4.866;2023-09-08T00:04:30;252.73;;;239.93;;
75898;SDS011;64576;50.460;4.866;2023-09-08T00:06:55;130.35;;;125.10;;
75898;SDS011;64576;50.460;4.866;2023-09-08T00:09:21;68.10;;;65.82;;
75898;SDS011;64576;50.460;4.866;2023-09-08T00:11:46;89.65;;;86.35;;
75898;SDS011;64576;50.460;4.866;2023-09-08T00:14:11;165.75;;;159.77;;
75898;SDS011;64576;50.460;4.866;2023-09-08T00:16:37;134.38;;;128.75;;
75898;SDS011;64576;50.460;4.866;2023-09-08T00:19:04;80.97;;;78.07;;
75898;SDS011;64576;50.460;4.866;2023-09-08T00:21:29;89.32;;;85.97;;
75898;SDS011;64576;50.460;4.866;2023-09-08T00:23:55;22.20;;;21.38;;
75898;SDS011;64576;50.460;4.866;2023-09-08T00:26:21;88.97;;;86.03;;
75898;SDS011;64576;50.460;4.866;2023-09-08T00:28:47;80.93;;;78.18;;
75898;SDS011;64576;50.460;4.866;2023-09-08T00:31:13;106.53;;;102.55;;
75898;SDS011;64576;50.460;4.866;2023-09-08T00:33:38;134.07;;;129.32;;
75898;SDS011;64576;50.460;4.866;2023-09-08T00:36:04;170.90;;;163.05;;
75898;SDS011;64576;50.460;4.866;2023-09-08T00:38:29;117.32;;;111.90;;
75898;SDS011;64576;50.460;4.866;2023-09-08T00:40:55;69.22;;;66.82;;
75898;SDS011;64576;50.460;4.866;2023-09-08T00:43:20;143.90;;;137.82;;
75898;SDS011;64576;50.460;4.866;2023-09-08T00:45:46;203.18;;;194.30;;
75898;SDS011;64576;50.460;4.866;2023-09-08T00:48:12;117.03;;;112.32;;
75898;SDS011;64576;50.460;4.866;2023-09-08T00:50:38;90.10;;;86.88;;
75898;SDS011;64576;50.460;4.866;2023-09-08T00:53:04;132.00;;;126.20;;
75898;SDS011;64576;50.460;4.866;2023-09-08T00:55:30;137.45;;;132.60;;
75898;SDS011;64576;50.460;4.866;2023-09-08T00:57:56;167.00;;;160.18;;
75898;SDS011;64576;50.460;4.866;2023-09-08T01:00:23;149.75;;;144.25;;
75898;SDS011;64576;50.460;4.866;2023-09-08T01:02:49;111.80;;;107.55;;
75898;SDS011;64576;50.460;4.866;2023-09-08T01:05:14;233.88;;;220.23;;
75898;SDS011;64576;50.460;4.866;2023-09-08T01:07:41;66.70;;;64.55;;
75898;SDS011;64576;50.460;4.866;2023-09-08T01:10:07;263.33;;;252.68;;
75898;SDS011;64576;50.460;4.866;2023-09-08T01:12:33;71.60;;;69.30;;
75898;SDS011;64576;50.460;4.866;2023-09-08T01:15:00;90.47;;;87.20;;
75898;SDS011;64576;50.460;4.866;2023-09-08T01:17:26;174.48;;;166.25;;
75898;SDS011;64576;50.460;4.866;2023-09-08T01:19:52;164.75;;;157.10;;
75898;SDS011;64576;50.460;4.866;2023-09-08T01:25:23;253.20;;;240.63;;
75898;SDS011;64576;50.460;4.866;2023-09-08T01:27:53;260.48;;;248.55;;
75898;SDS011;64576;50.460;4.866;2023-09-08T01:30:21;434.10;;;408.02;;
75898;SDS011;64576;50.460;4.866;2023-09-08T01:32:48;391.90;;;362.17;;
75898;SDS011;64576;50.460;4.866;2023-09-08T01:35:14;82.28;;;79.15;;
75898;SDS011;64576;50.460;4.866;2023-09-08T01:37:40;304.75;;;290.75;;
75898;SDS011;64576;50.460;4.866;2023-09-08T01:40:07;129.63;;;125.20;;
75898;SDS011;64576;50.460;4.866;2023-09-08T01:42:34;151.88;;;146.52;;
75898;SDS011;64576;50.460;4.866;2023-09-08T01:44:59;359.17;;;336.08;;
75898;SDS011;64576;50.460;4.866;2023-09-08T01:47:25;160.25;;;153.35;;
75898;SDS011;64576;50.460;4.866;2023-09-08T01:49:50;151.07;;;144.88;;
75898;SDS011;64576;50.460;4.866;2023-09-08T01:52:16;378.25;;;357.42;;
75898;SDS011;64576;50.460;4.866;2023-09-08T01:54:41;359.65;;;338.98;;
75898;SDS011;64576;50.460;4.866;2023-09-08T01:57:06;236.38;;;225.70;;
75898;SDS011;64576;50.460;4.866;2023-09-08T01:59:32;298.55;;;285.60;;
75898;SDS011;64576;50.460;4.866;2023-09-08T02:01:57;307.25;;;291.50;;
75898;SDS011;64576;50.460;4.866;2023-09-08T02:04:23;280.80;;;268.15;;
75898;SDS011;64576;50.460;4.866;2023-09-08T02:06:48;269.83;;;259.40;;
75898;SDS011;64576;50.460;4.866;2023-09-08T02:09:14;354.67;;;339.38;;
75898;SDS011;64576;50.460;4.866;2023-09-08T02:11:39;260.33;;;249.10;;
75898;SDS011;64576;50.460;4.866;2023-09-08T02:14:05;297.88;;;285.00;;
75898;SDS011;64576;50.460;4.866;2023-09-08T02:16:30;128.55;;;124.10;;
75898;SDS011;64576;50.460;4.866;2023-09-08T02:18:55;79.82;;;76.95;;
75898;SDS011;64576;50.460;4.866;2023-09-08T02:21:21;96.07;;;93.10;;
75898;SDS011;64576;50.460;4.866;2023-09-08T02:23:47;153.00;;;146.38;;
75898;SDS011;64576;50.460;4.866;2023-09-08T02:26:12;74.15;;;71.53;;
75898;SDS011;64576;50.460;4.866;2023-09-08T02:28:37;72.07;;;69.80;;
75898;SDS011;64576;50.460;4.866;2023-09-08T02:31:03;63.38;;;61.35;;
75898;SDS011;64576;50.460;4.866;2023-09-08T02:33:28;32.38;;;31.33;;
75898;SDS011;64576;50.460;4.866;2023-09-08T02:35:53;39.65;;;38.33;;
75898;SDS011;64576;50.460;4.866;2023-09-08T02:38:19;134.27;;;129.43;;
75898;SDS011;64576;50.460;4.866;2023-09-08T02:40:44;103.68;;;100.13;;
75898;SDS011;64576;50.460;4.866;2023-09-08T02:43:10;113.53;;;109.72;;
75898;SDS011;64576;50.460;4.866;2023-09-08T02:45:35;154.88;;;149.57;;
75898;SDS011;64576;50.460;4.866;2023-09-08T02:48:01;171.02;;;164.85;;
75898;SDS011;64576;50.460;4.866;2023-09-08T02:50:26;129.55;;;124.82;;
75898;SDS011;64576;50.460;4.866;2023-09-08T02:52:52;73.10;;;70.20;;
75898;SDS011;64576;50.460;4.866;2023-09-08T02:55:17;108.47;;;104.70;;
75898;SDS011;64576;50.460;4.866;2023-09-08T02:57:43;59.13;;;56.67;;
75898;SDS011;64576;50.460;4.866;2023-09-08T03:00:08;217.05;;;206.77;;
75898;SDS011;64576;50.460;4.866;2023-09-08T03:02:34;226.38;;;215.73;;
75898;SDS011;64576;50.460;4.866;2023-09-08T03:04:59;194.68;;;186.77;;
75898;SDS011;64576;50.460;4.866;2023-09-08T03:07:25;217.40;;;208.82;;
75898;SDS011;64576;50.460;4.866;2023-09-08T03:09:54;288.27;;;271.33;;
75898;SDS011;64576;50.460;4.866;2023-09-08T03:12:19;516.40;;;481.50;;
75898;SDS011;64576;50.460;4.866;2023-09-08T03:14:44;324.73;;;304.58;;
75898;SDS011;64576;50.460;4.866;2023-09-08T03:17:10;338.00;;;321.35;;
75898;SDS011;64576;50.460;4.866;2023-09-08T03:19:36;177.57;;;169.68;;
75898;SDS011;64576;50.460;4.866;2023-09-08T03:22:02;416.92;;;391.52;;
75898;SDS011;64576;50.460;4.866;2023-09-08T03:24:27;537.90;;;502.58;;
75898;SDS011;64576;50.460;4.866;2023-09-08T03:26:52;431.55;;;405.98;;
75898;SDS011;64576;50.460;4.866;2023-09-08T03:29:18;224.02;;;213.73;;
75898;SDS011;64576;50.460;4.866;2023-09-08T03:31:43;361.15;;;344.20;;
75898;SDS011;64576;50.460;4.866;2023-09-08T03:34:09;198.88;;;191.27;;
75898;SDS011;64576;50.460;4.866;2023-09-08T03:36:34;277.25;;;265.65;;
75898;SDS011;64576;50.460;4.866;2023-09-08T03:39:01;402.05;;;383.98;;
75898;SDS011;64576;50.460;4.866;2023-09-08T03:41:27;278.25;;;265.80;;
75898;SDS011;64576;50.460;4.866;2023-09-08T03:43:52;315.10;;;300.95;;
75898;SDS011;64576;50.460;4.866;2023-09-08T03:46:17;260.88;;;249.48;;
75898;SDS011;64576;50.460;4.866;2023-09-08T03:48:43;225.43;;;215.68;;
75898;SDS011;64576;50.460;4.866;2023-09-08T03:51:08;460.20;;;432.95;;
75898;SDS011;64576;50.460;4.866;2023-09-08T03:53:33;387.70;;;369.20;;
75898;SDS011;64576;50.460;4.866;2023-09-08T03:55:59;190.82;;;183.70;;
75898;SDS011;64576;50.460;4.866;2023-09-08T03:58:24;110.03;;;105.90;;
75898;SDS011;64576;50.460;4.866;2023-09-08T04:00:50;148.27;;;142.93;;
75898;SDS011;64576;50.460;4.866;2023-09-08T04:03:15;197.30;;;189.32;;
75898;SDS011;64576;50.460;4.866;2023-09-08T04:05:40;199.32;;;191.63;;
75898;SDS011;64576;50.460;4.866;2023-09-08T04:08:06;122.72;;;118.68;;
75898;SDS011;64576;50.460;4.866;2023-09-08T04:10:31;192.93;;;185.48;;
75898;SDS011;64576;50.460;4.866;2023-09-08T04:12:57;209.10;;;199.68;;
75898;SDS011;64576;50.460;4.866;2023-09-08T04:15:22;123.70;;;119.88;;
75898;SDS011;64576;50.460;4.866;2023-09-08T04:17:48;141.90;;;136.70;;
75898;SDS011;64576;50.460;4.866;2023-09-08T04:20:13;75.75;;;73.32;;
75898;SDS011;64576;50.460;4.866;2023-09-08T04:22:41;69.45;;;67.15;;
75898;SDS011;64576;50.460;4.866;2023-09-08T04:25:07;61.35;;;59.50;;
75898;SDS011;64576;50.460;4.866;2023-09-08T04:27:32;58.83;;;57.05;;
75898;SDS011;64576;50.460;4.866;2023-09-08T04:29:58;139.57;;;134.82;;
75898;SDS011;64576;50.460;4.866;2023-09-08T04:32:24;103.78;;;100.43;;
75898;SDS011;64576;50.460;4.866;2023-09-08T04:34:50;88.93;;;86.32;;
75898;SDS011;64576;50.460;4.866;2023-09-08T04:37:15;76.60;;;74.30;;
75898;SDS011;64576;50.460;4.866;2023-09-08T04:39:41;87.80;;;85.20;;
75898;SDS011;64576;50.460;4.866;2023-09-08T04:42:06;76.35;;;74.07;;
75898;SDS011;64576;50.460;4.866;2023-09-08T04:44:32;68.18;;;66.05;;
75898;SDS011;64576;50.460;4.866;2023-09-08T04:46:57;56.13;;;54.42;;
75898;SDS011;64576;50.460;4.866;2023-09-08T04:49:22;121.07;;;117.35;;
75898;SDS011;64576;50.460;4.866;2023-09-08T04:51:48;104.07;;;101.18;;
75898;SDS011;64576;50.460;4.866;2023-09-08T04:54:13;48.55;;;46.95;;
75898;SDS011;64576;50.460;4.866;2023-09-08T04:56:39;41.03;;;39.75;;
75898;SDS011;64576;50.460;4.866;2023-09-08T04:59:05;281.00;;;271.60;;
75898;SDS011;64576;50.460;4.866;2023-09-08T05:01:31;242.63;;;230.07;;
75898;SDS011;64576;50.460;4.866;2023-09-08T05:03:57;145.63;;;140.55;;
75898;SDS011;64576;50.460;4.866;2023-09-08T05:06:24;233.77;;;224.20;;
75898;SDS011;64576;50.460;4.866;2023-09-08T05:08:49;327.55;;;309.30;;
75898;SDS011;64576;50.460;4.866;2023-09-08T05:11:15;179.10;;;171.93;;
75898;SDS011;64576;50.460;4.866;2023-09-08T05:13:40;354.27;;;338.67;;
75898;SDS011;64576;50.460;4.866;2023-09-08T05:16:06;247.50;;;238.68;;
75898;SDS011;64576;50.460;4.866;2023-09-08T05:18:40;708.03;;;662.88;;
75898;SDS011;64576;50.460;4.866;2023-09-08T05:21:06;342.38;;;326.35;;
75898;SDS011;64576;50.460;4.866;2023-09-08T05:23:32;306.65;;;294.25;;
75898;SDS011;64576;50.460;4.866;2023-09-08T05:25:57;234.70;;;226.32;;
75898;SDS011;64576;50.460;4.866;2023-09-08T05:28:23;558.17;;;530.40;;
75898;SDS011;64576;50.460;4.866;2023-09-08T05:30:52;278.15;;;266.90;;
75898;SDS011;64576;50.460;4.866;2023-09-08T05:33:17;265.00;;;254.90;;
75898;SDS011;64576;50.460;4.866;2023-09-08T05:35:44;282.15;;;271.23;;
75898;SDS011;64576;50.460;4.866;2023-09-08T05:38:10;352.23;;;339.13;;
75898;SDS011;64576;50.460;4.866;2023-09-08T05:40:35;160.88;;;155.98;;
75898;SDS011;64576;50.460;4.866;2023-09-08T05:43:00;332.35;;;311.00;;
75898;SDS011;64576;50.460;4.866;2023-09-08T05:45:27;479.98;;;456.35;;
75898;SDS011;64576;50.460;4.866;2023-09-08T05:47:52;209.27;;;199.88;;
75898;SDS011;64576;50.460;4.866;2023-09-08T05:50:18;359.58;;;343.58;;
75898;SDS011;64576;50.460;4.866;2023-09-08T05:52:43;285.42;;;274.40;;
75898;SDS011;64576;50.460;4.866;2023-09-08T05:55:08;203.15;;;196.43;;
75898;SDS011;64576;50.460;4.866;2023-09-08T05:57:34;286.98;;;278.27;;
75898;SDS011;64576;50.460;4.866;2023-09-08T05:59:59;196.38;;;188.07;;
75898;SDS011;64576;50.460;4.866;2023-09-08T06:02:25;121.45;;;117.95;;
75898;SDS011;64576;50.460;4.866;2023-09-08T06:04:51;399.42;;;385.95;;
75898;SDS011;64576;50.460;4.866;2023-09-08T06:07:16;130.20;;;125.78;;
75898;SDS011;64576;50.460;4.866;2023-09-08T06:09:42;210.18;;;203.63;;
75898;SDS011;64576;50.460;4.866;2023-09-08T06:12:07;257.80;;;247.25;;
75898;SDS011;64576;50.460;4.866;2023-09-08T06:14:33;109.95;;;106.15;;
75898;SDS011;64576;50.460;4.866;2023-09-08T06:16:58;208.43;;;201.13;;
75898;SDS011;64576;50.460;4.866;2023-09-08T06:19:23;114.68;;;110.30;;
75898;SDS011;64576;50.460;4.866;2023-09-08T06:21:49;137.75;;;132.85;;
75898;SDS011;64576;50.460;4.866;2023-09-08T06:24:14;205.00;;;198.63;;
75898;SDS011;64576;50.460;4.866;2023-09-08T06:26:39;236.70;;;225.43;;
75898;SDS011;64576;50.460;4.866;2023-09-08T06:29:07;84.18;;;81.50;;
75898;SDS011;64576;50.460;4.866;2023-09-08T06:31:32;82.90;;;79.68;;
75898;SDS011;64576;50.460;4.866;2023-09-08T06:33:58;57.03;;;55.08;;
75898;SDS011;64576;50.460;4.866;2023-09-08T06:36:23;140.63;;;135.88;;
75898;SDS011;64576;50.460;4.866;2023-09-08T06:38:48;77.95;;;74.93;;
75898;SDS011;64576;50.460;4.866;2023-09-08T06:41:14;47.83;;;45.85;;
75898;SDS011;64576;50.460;4.866;2023-09-08T06:43:39;58.78;;;56.60;;
75898;SDS011;64576;50.460;4.866;2023-09-08T06:46:04;68.10;;;65.53;;
75898;SDS011;64576;50.460;4.866;2023-09-08T06:48:30;41.40;;;39.80;;
75898;SDS011;64576;50.460;4.866;2023-09-08T06:50:56;113.88;;;109.05;;
75898;SDS011;64576;50.460;4.866;2023-09-08T06:53:22;8.10;;;7.60;;
75898;SDS011;64576;50.460;4.866;2023-09-08T06:55:48;180.85;;;171.63;;
75898;SDS011;64576;50.460;4.866;2023-09-08T06:58:13;25.02;;;24.02;;
75898;SDS011;64576;50.460;4.866;2023-09-08T07:00:40;39.97;;;38.17;;
75898;SDS011;64576;50.460;4.866;2023-09-08T07:03:06;75.20;;;72.13;;
75898;SDS011;64576;50.460;4.866;2023-09-08T07:05:33;52.50;;;50.40;;
75898;SDS011;64576;50.460;4.866;2023-09-08T07:07:59;26.40;;;25.23;;
75898;SDS011;64576;50.460;4.866;2023-09-08T07:10:24;17.33;;;16.58;;
75898;SDS011;64576;50.460;4.866;2023-09-08T07:12:49;9.82;;;9.30;;
75898;SDS011;64576;50.460;4.866;2023-09-08T07:15:15;13.95;;;13.38;;
75898;SDS011;64576;50.460;4.866;2023-09-08T07:17:40;11.00;;;10.05;;
75898;SDS011;64576;50.460;4.866;2023-09-08T07:20:07;10.30;;;9.80;;
75898;SDS011;64576;50.460;4.866;2023-09-08T07:22:33;42.10;;;40.70;;
75898;SDS011;64576;50.460;4.866;2023-09-08T07:24:58;13.05;;;12.55;;
75898;SDS011;64576;50.460;4.866;2023-09-08T07:27:24;19.95;;;19.25;;
75898;SDS011;64576;50.460;4.866;2023-09-08T07:29:49;76.78;;;74.57;;
75898;SDS011;64576;50.460;4.866;2023-09-08T07:32:15;9.38;;;8.98;;
75898;SDS011;64576;50.460;4.866;2023-09-08T07:34:41;20.27;;;19.48;;
75898;SDS011;64576;50.460;4.866;2023-09-08T07:37:06;8.98;;;8.57;;
75898;SDS011;64576;50.460;4.866;2023-09-08T07:39:32;8.52;;;8.13;;
75898;SDS011;64576;50.460;4.866;2023-09-08T07:41:57;7.43;;;7.00;;
75898;SDS011;64576;50.460;4.866;2023-09-08T07:44:23;15.40;;;14.80;;
75898;SDS011;64576;50.460;4.866;2023-09-08T07:46:49;10.02;;;9.57;;
75898;SDS011;64576;50.460;4.866;2023-09-08T07:49:16;137.77;;;133.90;;
75898;SDS011;64576;50.460;4.866;2023-09-08T07:51:44;16.25;;;15.55;;
75898;SDS011;64576;50.460;4.866;2023-09-08T07:54:09;35.78;;;34.50;;
75898;SDS011;64576;50.460;4.866;2023-09-08T07:56:35;13.63;;;13.10;;
75898;SDS011;64576;50.460;4.866;2023-09-08T07:59:00;14.80;;;14.20;;
75898;SDS011;64576;50.460;4.866;2023-09-08T08:01:25;47.55;;;46.00;;
75898;SDS011;64576;50.460;4.866;2023-09-08T08:03:51;10.40;;;9.93;;
75898;SDS011;64576;50.460;4.866;2023-09-08T08:06:16;9.48;;;9.07;;
75898;SDS011;64576;50.460;4.866;2023-09-08T08:08:42;146.07;;;141.98;;
75898;SDS011;64576;50.460;4.866;2023-09-08T08:11:11;13.25;;;12.60;;
75898;SDS011;64576;50.460;4.866;2023-09-08T08:13:38;22.65;;;21.65;;
75898;SDS011;64576;50.460;4.866;2023-09-08T08:16:03;50.15;;;48.65;;
75898;SDS011;64576;50.460;4.866;2023-09-08T08:18:29;12.05;;;11.55;;
75898;SDS011;64576;50.460;4.866;2023-09-08T08:20:54;13.20;;;12.70;;
75898;SDS011;64576;50.460;4.866;2023-09-08T08:23:20;13.63;;;12.88;;
75898;SDS011;64576;50.460;4.866;2023-09-08T08:25:45;55.90;;;54.17;;
75898;SDS011;64576;50.460;4.866;2023-09-08T08:28:11;28.42;;;27.42;;
75898;SDS011;64576;50.460;4.866;2023-09-08T08:30:36;188.32;;;182.88;;
75898;SDS011;64576;50.460;4.866;2023-09-08T08:33:01;13.38;;;12.82;;
75898;SDS011;64576;50.460;4.866;2023-09-08T08:35:29;10.07;;;9.57;;
75898;SDS011;64576;50.460;4.866;2023-09-08T08:37:54;95.65;;;92.57;;
75898;SDS011;64576;50.460;4.866;2023-09-08T08:40:20;11.68;;;11.18;;
75898;SDS011;64576;50.460;4.866;2023-09-08T08:42:45;17.73;;;17.08;;
75898;SDS011;64576;50.460;4.866;2023-09-08T08:45:11;7.43;;;7.03;;
75898;SDS011;64576;50.460;4.866;2023-09-08T08:47:37;28.17;;;27.20;;
75898;SDS011;64576;50.460;4.866;2023-09-08T08:50:02;20.42;;;19.63;;
75898;SDS011;64576;50.460;4.866;2023-09-08T08:52:29;6.93;;;6.53;;
75898;SDS011;64576;50.460;4.866;2023-09-08T08:54:55;10.60;;;10.13;;
75898;SDS011;64576;50.460;4.866;2023-09-08T08:57:24;5.30;;;4.90;;
75898;SDS011;64576;50.460;4.866;2023-09-08T08:59:52;7.13;;;6.73;;
75898;SDS011;64576;50.460;4.866;2023-09-08T09:02:18;5.40;;;5.05;;
75898;SDS011;64576;50.460;4.866;2023-09-08T09:04:44;26.00;;;24.15;;
75898;SDS011;64576;50.460;4.866;2023-09-08T09:07:10;3.05;;;2.85;;
75898;SDS011;64576;50.460;4.866;2023-09-08T09:09:36;9.18;;;8.55;;
75898;SDS011;64576;50.460;4.866;2023-09-08T09:12:02;3.20;;;3.00;;
75898;SDS011;64576;50.460;4.866;2023-09-08T09:14:31;4.32;;;4.13;;
75898;SDS011;64576;50.460;4.866;2023-09-08T09:16:58;2.92;;;2.72;;
75898;SDS011;64576;50.460;4.866;2023-09-08T09:19:24;4.20;;;3.97;;
75898;SDS011;64576;50.460;4.866;2023-09-08T09:21:52;6.30;;;6.00;;
75898;SDS011;64576;50.460;4.866;2023-09-08T09:26:58;3.45;;;3.25;;
75898;SDS011;64576;50.460;4.866;2023-09-08T09:29:23;5.45;;;5.15;;
75898;SDS011;64576;50.460;4.866;2023-09-08T09:34:22;6.70;;;6.40;;
75898;SDS011;64576;50.460;4.866;2023-09-08T09:36:48;16.98;;;16.38;;
75898;SDS011;64576;50.460;4.866;2023-09-08T09:39:18;6.82;;;6.40;;
75898;SDS011;64576;50.460;4.866;2023-09-08T09:41:49;8.68;;;8.27;;
75898;SDS011;64576;50.460;4.866;2023-09-08T09:44:17;4.18;;;3.88;;
75898;SDS011;64576;50.460;4.866;2023-09-08T09:46:44;5.32;;;5.03;;
75898;SDS011;64576;50.460;4.866;2023-09-08T09:49:11;3.90;;;3.70;;
75898;SDS011;64576;50.460;4.866;2023-09-08T09:51:45;3.13;;;2.92;;
75898;SDS011;64576;50.460;4.866;2023-09-08T09:54:16;3.63;;;3.42;;
75898;SDS011;64576;50.460;4.866;2023-09-08T09:56:42;8.00;;;7.60;;
75898;SDS011;64576;50.460;4.866;2023-09-08T09:59:09;2.40;;;2.30;;
75898;SDS011;64576;50.460;4.866;2023-09-08T10:01:36;2.58;;;2.47;;
75898;SDS011;64576;50.460;4.866;2023-09-08T10:04:03;6.03;;;5.72;;
75898;SDS011;64576;50.460;4.866;2023-09-08T10:06:35;2.70;;;2.60;;
75898;SDS011;64576;50.460;4.866;2023-09-08T10:09:02;5.65;;;5.35;;
75898;SDS011;64576;50.460;4.866;2023-09-08T10:11:34;3.17;;;2.97;;
75898;SDS011;64576;50.460;4.866;2023-09-08T10:14:02;3.00;;;2.83;;
75898;SDS011;64576;50.460;4.866;2023-09-08T10:16:27;21.33;;;20.58;;
75898;SDS011;64576;50.460;4.866;2023-09-08T10:18:57;4.50;;;4.30;;
75898;SDS011;64576;50.460;4.866;2023-09-08T10:21:24;6.40;;;6.10;;
75898;SDS011;64576;50.460;4.866;2023-09-08T10:23:54;6.57;;;6.20;;
75898;SDS011;64576;50.460;4.866;2023-09-08T10:26:30;4.03;;;3.78;;
75898;SDS011;64576;50.460;4.866;2023-09-08T10:28:59;11.02;;;10.52;;
75898;SDS011;64576;50.460;4.866;2023-09-08T10:31:25;6.93;;;6.38;;
75898;SDS011;64576;50.460;4.866;2023-09-08T10:33:53;8.35;;;7.95;;
75898;SDS011;64576;50.460;4.866;2023-09-08T10:36:25;13.80;;;13.27;;
75898;SDS011;64576;50.460;4.866;2023-09-08T10:38:50;9.38;;;8.85;;
75898;SDS011;64576;50.460;4.866;2023-09-08T10:44:06;74.17;;;71.97;;
75898;SDS011;64576;50.460;4.866;2023-09-08T10:46:30;6.03;;;5.63;;
75898;SDS011;64576;50.460;4.866;2023-09-08T10:49:00;6.82;;;6.43;;
75898;SDS011;64576;50.460;4.866;2023-09-08T10:51:31;52.42;;;50.80;;
75898;SDS011;64576;50.460;4.866;2023-09-08T10:53:58;5.82;;;5.53;;
75898;SDS011;64576;50.460;4.866;2023-09-08T10:56:46;9.60;;;9.13;;
75898;SDS011;64576;50.460;4.866;2023-09-08T10:59:16;25.23;;;24.23;;
75898;SDS011;64576;50.460;4.866;2023-09-08T11:01:41;3.22;;;3.03;;
75898;SDS011;64576;50.460;4.866;2023-09-08T11:04:07;5.40;;;5.10;;
75898;SDS011;64576;50.460;4.866;2023-09-08T11:06:35;2.85;;;2.65;;
75898;SDS011;64576;50.460;4.866;2023-09-08T11:09:07;2.20;;;2.10;;
75898;SDS011;64576;50.460;4.866;2023-09-08T11:11:33;3.45;;;3.25;;
75898;SDS011;64576;50.460;4.866;2023-09-08T11:13:59;2.85;;;2.65;;
75898;SDS011;64576;50.460;4.866;2023-09-08T11:16:24;9.95;;;9.45;;
75898;SDS011;64576;50.460;4.866;2023-09-08T11:18:54;36.67;;;35.47;;
75898;SDS011;64576;50.460;4.866;2023-09-08T11:21:19;6.22;;;5.82;;
75898;SDS011;64576;50.460;4.866;2023-09-08T11:23:45;6.25;;;5.95;;
75898;SDS011;64576;50.460;4.866;2023-09-08T11:26:11;42.22;;;40.95;;
75898;SDS011;64576;50.460;4.866;2023-09-08T11:28:37;5.57;;;5.28;;
75898;SDS011;64576;50.460;4.866;2023-09-08T11:31:02;14.63;;;14.02;;
75898;SDS011;64576;50.460;4.866;2023-09-08T11:33:32;15.70;;;14.95;;
75898;SDS011;64576;50.460;4.866;2023-09-08T11:35:59;6.83;;;6.47;;
75898;SDS011;64576;50.460;4.866;2023-09-08T11:38:25;19.95;;;19.23;;
75898;SDS011;64576;50.460;4.866;2023-09-08T11:40:52;15.32;;;14.63;;
75898;SDS011;64576;50.460;4.866;2023-09-08T11:43:18;8.52;;;8.13;;
75898;SDS011;64576;50.460;4.866;2023-09-08T11:45:44;34.35;;;33.22;;
75898;SDS011;64576;50.460;4.866;2023-09-08T11:48:10;2.85;;;2.72;;
75898;SDS011;64576;50.460;4.866;2023-09-08T11:50:35;7.75;;;7.35;;
75898;SDS011;64576;50.460;4.866;2023-09-08T11:53:01;6.53;;;6.20;;
75898;SDS011;64576;50.460;4.866;2023-09-08T11:55:27;6.25;;;5.88;;
75898;SDS011;64576;50.460;4.866;2023-09-08T11:57:53;110.97;;;107.78;;
75898;SDS011;64576;50.460;4.866;2023-09-08T12:00:22;18.00;;;17.35;;
75898;SDS011;64576;50.460;4.866;2023-09-08T12:02:48;7.03;;;6.63;;
75898;SDS011;64576;50.460;4.866;2023-09-08T12:05:24;23.33;;;22.40;;
75898;SDS011;64576;50.460;4.866;2023-09-08T12:07:55;198.50;;;192.90;;
75898;SDS011;64576;50.460;4.866;2023-09-08T12:10:21;6.03;;;5.63;;
75898;SDS011;64576;50.460;4.866;2023-09-08T12:12:51;5.30;;;5.00;;
75898;SDS011;64576;50.460;4.866;2023-09-08T12:18:02;5.28;;;4.70;;
75898;SDS011;64576;50.460;4.866;2023-09-08T12:20:38;2.00;;;1.85;;
75898;SDS011;64576;50.460;4.866;2023-09-08T12:23:05;2.22;;;2.13;;
75898;SDS011;64576;50.460;4.866;2023-09-08T12:25:50;5.60;;;5.30;;
75898;SDS011;64576;50.460;4.866;2023-09-08T12:28:17;1.60;;;1.50;;
75898;SDS011;64576;50.460;4.866;2023-09-08T12:30:44;1.75;;;1.65;;
75898;SDS011;64576;50.460;4.866;2023-09-08T12:33:10;1.80;;;1.70;;
75898;SDS011;64576;50.460;4.866;2023-09-08T12:35:36;1.98;;;1.85;;
75898;SDS011;64576;50.460;4.866;2023-09-08T12:38:02;1.70;;;1.60;;
75898;SDS011;64576;50.460;4.866;2023-09-08T12:40:30;1.42;;;1.40;;
75898;SDS011;64576;50.460;4.866;2023-09-08T12:42:58;4.93;;;4.63;;
75898;SDS011;64576;50.460;4.866;2023-09-08T12:45:25;4.53;;;4.22;;
75898;SDS011;64576;50.460;4.866;2023-09-08T12:47:51;10.32;;;9.82;;
75898;SDS011;64576;50.460;4.866;2023-09-08T12:50:17;5.65;;;4.22;;
75898;SDS011;64576;50.460;4.866;2023-09-08T12:52:43;4.45;;;4.25;;
75898;SDS011;64576;50.460;4.866;2023-09-08T12:55:09;72.28;;;70.18;;
75898;SDS011;64576;50.460;4.866;2023-09-08T12:57:35;2.00;;;1.90;;
75898;SDS011;64576;50.460;4.866;2023-09-08T13:00:01;2.13;;;2.03;;
75898;SDS011;64576;50.460;4.866;2023-09-08T13:02:30;8.75;;;8.35;;
75898;SDS011;64576;50.460;4.866;2023-09-08T13:04:55;1.70;;;1.60;;
75898;SDS011;64576;50.460;4.866;2023-09-08T13:07:21;1.88;;;1.77;;
75898;SDS011;64576;50.460;4.866;2023-09-08T13:09:47;5.15;;;4.85;;
75898;SDS011;64576;50.460;4.866;2023-09-08T13:12:12;2.45;;;2.28;;
75898;SDS011;64576;50.460;4.866;2023-09-08T13:14:39;2.30;;;2.10;;
75898;SDS011;64576;50.460;4.866;2023-09-08T13:17:04;10.88;;;10.40;;
75898;SDS011;64576;50.460;4.866;2023-09-08T13:19:31;17.10;;;16.40;;
75898;SDS011;64576;50.460;4.866;2023-09-08T13:21:56;3.30;;;3.10;;
75898;SDS011;64576;50.460;4.866;2023-09-08T13:24:22;4.13;;;3.92;;
75898;SDS011;64576;50.460;4.866;2023-09-08T13:26:47;25.23;;;24.38;;
75898;SDS011;64576;50.460;4.866;2023-09-08T13:29:13;16.50;;;4.15;;
75898;SDS011;64576;50.460;4.866;2023-09-08T13:31:39;8.82;;;6.10;;
75898;SDS011;64576;50.460;4.866;2023-09-08T13:34:04;89.70;;;87.10;;
75898;SDS011;64576;50.460;4.866;2023-09-08T13:36:30;6.15;;;5.75;;
75898;SDS011;64576;50.460;4.866;2023-09-08T13:38:55;4.28;;;4.07;;
75898;SDS011;64576;50.460;4.866;2023-09-08T13:41:21;114.28;;;110.50;;
75898;SDS011;64576;50.460;4.866;2023-09-08T13:43:46;3.47;;;3.22;;
75898;SDS011;64576;50.460;4.866;2023-09-08T13:46:12;6.53;;;5.97;;
75898;SDS011;64576;50.460;4.866;2023-09-08T13:48:37;73.47;;;71.37;;
75898;SDS011;64576;50.460;4.866;2023-09-08T13:51:03;4.40;;;4.20;;
75898;SDS011;64576;50.460;4.866;2023-09-08T13:53:29;4.35;;;4.05;;
75898;SDS011;64576;50.460;4.866;2023-09-08T13:55:58;13.25;;;12.75;;
75898;SDS011;64576;50.460;4.866;2023-09-08T13:58:23;116.22;;;112.95;;
75898;SDS011;64576;50.460;4.866;2023-09-08T14:00:49;5.95;;;5.65;;
75898;SDS011;64576;50.460;4.866;2023-09-08T14:03:16;4.60;;;4.38;;
75898;SDS011;64576;50.460;4.866;2023-09-08T14:05:42;161.02;;;156.57;;
75898;SDS011;64576;50.460;4.866;2023-09-08T14:08:07;4.20;;;3.90;;
75898;SDS011;64576;50.460;4.866;2023-09-08T14:10:33;5.22;;;4.93;;
75898;SDS011;64576;50.460;4.866;2023-09-08T14:12:58;138.02;;;134.25;;
75898;SDS011;64576;50.460;4.866;2023-09-08T14:15:23;5.28;;;4.97;;
75898;SDS011;64576;50.460;4.866;2023-09-08T14:17:49;7.70;;;7.30;;
75898;SDS011;64576;50.460;4.866;2023-09-08T14:20:14;102.65;;;99.55;;
75898;SDS011;64576;50.460;4.866;2023-09-08T14:22:40;13.50;;;13.02;;
75898;SDS011;64576;50.460;4.866;2023-09-08T14:25:05;5.43;;;5.13;;
75898;SDS011;64576;50.460;4.866;2023-09-08T14:27:31;17.92;;;17.23;;